Portland, OR

9:33 PM PDT on April 30, 2017 (GMT -0700)
Portland State University | | Change Station

Elev 150 ft 45.51 °N, 122.69 °W | Updated 3 minutes ago

Partly Cloudy
Partly Cloudy
50.2 °F
Feels Like 50.2 °F
N
4.7
Wind Variable Wind from NNW

Today
High -- | Low -- °F
--% Chance of Precip.
Yesterday
High -- | Low -- °F
Precip. -- in
Pressure 30.36 in
Visibility 10.0 miles
Clouds Few 5500 ft
Scattered Clouds 10000 ft
Dew Point 36 °F
Humidity 59%
Rainfall 0.07 in
Snow Depth Not available.
5:59 AM 8:16 PM
Waxing Crescent, 29% visible
METAR KPDX 010353Z 35006KT 10SM FEW055 SCT100 11/03 A3036 RMK AO2 SLP280 T01060028 $
Pressure 30.36 in
Visibility 10.0 miles
Clouds Few 5500 ft
Scattered Clouds 10000 ft
Dew Point 36 °F
Humidity 59%
Rainfall 0.07 in
Snow Depth Not available.
5:59 AM 8:16 PM
Waxing Crescent, 29% visible
METAR KPDX 010353Z 35006KT 10SM FEW055 SCT100 11/03 A3036 RMK AO2 SLP280 T01060028 $

Get Severe Weather Alerts

Thanks for signing up!

Be on the lookout for a verification email in your inbox.

You'll start receiving the daily forecast at 8 AM.

×

10-Day Weather Forecast

Almanac

Astronomy

Apr. 30, 2017 Rise Set
Actual Time
Civil Twilight
Nautical Twilight
Astronomical Twilight
Moon
Length of Visible Light
Length of Day
Tomorrow will be .
, % of the Moon is Illuminated

Today's Extremes

State Highs State Lows

Community

WunderPhotos

WunderBlog® & News

Nearby

Air Quality

  Air Quality AQ Index Pollutant
Not available.

Snow Depth

Station Depth Elevation

Earthquake Activity

City Distance Mag. Time & Date
Minimum magnitude displayed is 2.5.

Coastal Water Temperatures

Place Temperature

Stations

Nearby Weather Stations

Station Location Temp. Windchill Dew Point Humidity Wind Precip. Elev Updated Type
                   

Watches & Warnings

There are currently no watches in effect.